Nicholson, Pennsylvania
Current Conditions -  °F | °C
As of 1:15 AM on Wednesday 22 Oct 2014 (Local Time) from KAVP Reporting Station
Overcast Overcast  
Wind Chill: 52°   Ceiling: 2200
Heat Index: 52°   Visibility: 9mi
Dew Point: 49°   Wind: 3mph
Humidity: 89%   Direction: 60°ENE
Pressure: 29.93"   Gusts: NA
Location:  41.63°N, 75.78°W
Report Text: KAVP 220515Z 06003KT 9SM BKN022 OVC039 11/09 A2993 RMK AO2 T01110094
Loading
Personal Weather Stations






























Interactive Weather Map
Tropical Storm Tracking
New forecast layout! Learn more

10-Day Weather Forecast

Advertisements
Track Severe Weather on mobile